sensor_id;sensor_type;location;lat;lon;timestamp;P1;durP1;ratioP1;P2;durP2;ratioP2
19255;SDS011;9762;52.490;13.410;2023-01-23T00:00:32;15.57;;;12.93;;
19255;SDS011;9762;52.490;13.410;2023-01-23T00:02:59;15.97;;;13.67;;
19255;SDS011;9762;52.490;13.410;2023-01-23T00:05:25;17.07;;;13.83;;
19255;SDS011;9762;52.490;13.410;2023-01-23T00:07:50;15.43;;;12.63;;
19255;SDS011;9762;52.490;13.410;2023-01-23T00:10:16;16.33;;;13.70;;
19255;SDS011;9762;52.490;13.410;2023-01-23T00:12:43;16.30;;;13.03;;
19255;SDS011;9762;52.490;13.410;2023-01-23T00:15:10;16.80;;;14.07;;
19255;SDS011;9762;52.490;13.410;2023-01-23T00:17:37;16.43;;;13.43;;
19255;SDS011;9762;52.490;13.410;2023-01-23T00:20:05;16.93;;;14.13;;
19255;SDS011;9762;52.490;13.410;2023-01-23T00:22:35;14.70;;;13.10;;
19255;SDS011;9762;52.490;13.410;2023-01-23T00:25:00;15.30;;;13.70;;
19255;SDS011;9762;52.490;13.410;2023-01-23T00:27:26;16.63;;;13.20;;
19255;SDS011;9762;52.490;13.410;2023-01-23T00:29:52;16.20;;;13.90;;
19255;SDS011;9762;52.490;13.410;2023-01-23T00:32:18;16.33;;;13.03;;
19255;SDS011;9762;52.490;13.410;2023-01-23T00:34:44;13.43;;;12.03;;
19255;SDS011;9762;52.490;13.410;2023-01-23T00:37:10;16.20;;;13.97;;
19255;SDS011;9762;52.490;13.410;2023-01-23T00:39:36;18.50;;;15.03;;
19255;SDS011;9762;52.490;13.410;2023-01-23T00:42:02;15.83;;;13.93;;
19255;SDS011;9762;52.490;13.410;2023-01-23T00:44:27;16.00;;;13.20;;
19255;SDS011;9762;52.490;13.410;2023-01-23T00:46:54;17.07;;;14.30;;
19255;SDS011;9762;52.490;13.410;2023-01-23T00:49:20;16.87;;;14.03;;
19255;SDS011;9762;52.490;13.410;2023-01-23T00:51:46;17.03;;;13.27;;
19255;SDS011;9762;52.490;13.410;2023-01-23T00:54:12;16.33;;;13.13;;
19255;SDS011;9762;52.490;13.410;2023-01-23T00:56:37;17.20;;;13.67;;
19255;SDS011;9762;52.490;13.410;2023-01-23T00:59:03;17.43;;;13.87;;
19255;SDS011;9762;52.490;13.410;2023-01-23T01:01:29;15.77;;;13.60;;
19255;SDS011;9762;52.490;13.410;2023-01-23T01:03:56;19.00;;;15.57;;
19255;SDS011;9762;52.490;13.410;2023-01-23T01:06:22;16.97;;;13.87;;
19255;SDS011;9762;52.490;13.410;2023-01-23T01:08:48;16.03;;;13.70;;
19255;SDS011;9762;52.490;13.410;2023-01-23T01:11:14;18.13;;;14.93;;
19255;SDS011;9762;52.490;13.410;2023-01-23T01:13:40;18.30;;;14.97;;
19255;SDS011;9762;52.490;13.410;2023-01-23T01:16:06;20.33;;;15.13;;
19255;SDS011;9762;52.490;13.410;2023-01-23T01:18:32;18.83;;;14.00;;
19255;SDS011;9762;52.490;13.410;2023-01-23T01:20:57;16.27;;;14.30;;
19255;SDS011;9762;52.490;13.410;2023-01-23T01:23:23;18.67;;;15.50;;
19255;SDS011;9762;52.490;13.410;2023-01-23T01:25:49;18.70;;;15.00;;
19255;SDS011;9762;52.490;13.410;2023-01-23T01:28:15;18.93;;;14.10;;
19255;SDS011;9762;52.490;13.410;2023-01-23T01:30:41;18.93;;;14.57;;
19255;SDS011;9762;52.490;13.410;2023-01-23T01:33:06;17.40;;;14.00;;
19255;SDS011;9762;52.490;13.410;2023-01-23T01:35:32;18.30;;;14.53;;
19255;SDS011;9762;52.490;13.410;2023-01-23T01:37:58;16.53;;;13.53;;
19255;SDS011;9762;52.490;13.410;2023-01-23T01:40:28;20.27;;;14.40;;
19255;SDS011;9762;52.490;13.410;2023-01-23T01:42:58;18.33;;;14.83;;
19255;SDS011;9762;52.490;13.410;2023-01-23T01:46:26;17.53;;;13.93;;
19255;SDS011;9762;52.490;13.410;2023-01-23T01:48:23;18.17;;;14.67;;
19255;SDS011;9762;52.490;13.410;2023-01-23T01:50:55;17.80;;;15.53;;
19255;SDS011;9762;52.490;13.410;2023-01-23T01:53:23;17.97;;;14.80;;
19255;SDS011;9762;52.490;13.410;2023-01-23T01:55:51;17.77;;;14.40;;
19255;SDS011;9762;52.490;13.410;2023-01-23T01:58:17;19.43;;;15.30;;
19255;SDS011;9762;52.490;13.410;2023-01-23T02:00:43;17.80;;;14.20;;
19255;SDS011;9762;52.490;13.410;2023-01-23T02:03:09;20.80;;;15.90;;
19255;SDS011;9762;52.490;13.410;2023-01-23T02:05:36;18.70;;;14.53;;
19255;SDS011;9762;52.490;13.410;2023-01-23T02:08:09;19.63;;;16.10;;
19255;SDS011;9762;52.490;13.410;2023-01-23T02:10:40;21.23;;;15.57;;
19255;SDS011;9762;52.490;13.410;2023-01-23T02:13:19;18.80;;;15.40;;
19255;SDS011;9762;52.490;13.410;2023-01-23T02:15:52;19.40;;;15.07;;
19255;SDS011;9762;52.490;13.410;2023-01-23T02:18:18;20.83;;;16.17;;
19255;SDS011;9762;52.490;13.410;2023-01-23T02:20:45;16.43;;;13.93;;
19255;SDS011;9762;52.490;13.410;2023-01-23T02:26:13;20.80;;;16.07;;
19255;SDS011;9762;52.490;13.410;2023-01-23T02:28:43;20.53;;;15.57;;
19255;SDS011;9762;52.490;13.410;2023-01-23T02:31:11;19.07;;;14.63;;
19255;SDS011;9762;52.490;13.410;2023-01-23T02:36:04;18.40;;;15.60;;
19255;SDS011;9762;52.490;13.410;2023-01-23T02:38:34;17.87;;;14.17;;
19255;SDS011;9762;52.490;13.410;2023-01-23T02:41:05;17.83;;;15.00;;
19255;SDS011;9762;52.490;13.410;2023-01-23T02:43:33;18.43;;;15.33;;
19255;SDS011;9762;52.490;13.410;2023-01-23T02:46:05;17.13;;;14.77;;
19255;SDS011;9762;52.490;13.410;2023-01-23T02:48:33;18.03;;;14.77;;
19255;SDS011;9762;52.490;13.410;2023-01-23T02:51:00;18.10;;;15.13;;
19255;SDS011;9762;52.490;13.410;2023-01-23T02:53:25;20.63;;;15.83;;
19255;SDS011;9762;52.490;13.410;2023-01-23T02:55:51;18.40;;;14.30;;
19255;SDS011;9762;52.490;13.410;2023-01-23T02:58:17;19.60;;;14.87;;
19255;SDS011;9762;52.490;13.410;2023-01-23T03:01:12;22.50;;;16.27;;
19255;SDS011;9762;52.490;13.410;2023-01-23T03:03:38;20.03;;;15.47;;
19255;SDS011;9762;52.490;13.410;2023-01-23T03:06:06;20.37;;;15.13;;
19255;SDS011;9762;52.490;13.410;2023-01-23T03:08:32;17.67;;;14.87;;
19255;SDS011;9762;52.490;13.410;2023-01-23T03:11:00;20.23;;;16.23;;
19255;SDS011;9762;52.490;13.410;2023-01-23T03:13:27;20.90;;;15.60;;
19255;SDS011;9762;52.490;13.410;2023-01-23T03:15:53;18.47;;;15.20;;
19255;SDS011;9762;52.490;13.410;2023-01-23T03:18:21;17.93;;;14.80;;
19255;SDS011;9762;52.490;13.410;2023-01-23T03:20:47;20.03;;;15.77;;
19255;SDS011;9762;52.490;13.410;2023-01-23T03:23:13;18.43;;;15.60;;
19255;SDS011;9762;52.490;13.410;2023-01-23T03:25:43;19.93;;;15.63;;
19255;SDS011;9762;52.490;13.410;2023-01-23T03:28:10;21.40;;;16.10;;
19255;SDS011;9762;52.490;13.410;2023-01-23T03:30:55;22.20;;;15.97;;
19255;SDS011;9762;52.490;13.410;2023-01-23T03:33:21;20.97;;;15.93;;
19255;SDS011;9762;52.490;13.410;2023-01-23T03:35:47;18.57;;;15.43;;
19255;SDS011;9762;52.490;13.410;2023-01-23T03:38:14;18.80;;;15.37;;
19255;SDS011;9762;52.490;13.410;2023-01-23T03:40:42;18.70;;;15.10;;
19255;SDS011;9762;52.490;13.410;2023-01-23T03:43:29;18.97;;;15.27;;
19255;SDS011;9762;52.490;13.410;2023-01-23T03:45:56;19.10;;;14.77;;
19255;SDS011;9762;52.490;13.410;2023-01-23T03:48:22;18.17;;;14.70;;
19255;SDS011;9762;52.490;13.410;2023-01-23T03:50:48;17.03;;;14.83;;
19255;SDS011;9762;52.490;13.410;2023-01-23T03:53:13;17.57;;;15.13;;
19255;SDS011;9762;52.490;13.410;2023-01-23T03:55:39;15.90;;;13.60;;
19255;SDS011;9762;52.490;13.410;2023-01-23T03:58:04;16.90;;;14.73;;
19255;SDS011;9762;52.490;13.410;2023-01-23T04:00:30;19.10;;;15.13;;
19255;SDS011;9762;52.490;13.410;2023-01-23T04:02:55;22.43;;;16.17;;
19255;SDS011;9762;52.490;13.410;2023-01-23T04:05:21;19.73;;;15.80;;
19255;SDS011;9762;52.490;13.410;2023-01-23T04:07:47;19.03;;;15.17;;
19255;SDS011;9762;52.490;13.410;2023-01-23T04:10:13;17.67;;;15.37;;
19255;SDS011;9762;52.490;13.410;2023-01-23T04:12:41;17.60;;;14.53;;
19255;SDS011;9762;52.490;13.410;2023-01-23T04:15:07;17.90;;;15.23;;
19255;SDS011;9762;52.490;13.410;2023-01-23T04:17:33;18.97;;;15.80;;
19255;SDS011;9762;52.490;13.410;2023-01-23T04:19:58;21.07;;;16.03;;
19255;SDS011;9762;52.490;13.410;2023-01-23T04:22:24;20.43;;;16.10;;
19255;SDS011;9762;52.490;13.410;2023-01-23T04:24:50;17.70;;;15.10;;
19255;SDS011;9762;52.490;13.410;2023-01-23T04:27:15;18.00;;;15.43;;
19255;SDS011;9762;52.490;13.410;2023-01-23T04:29:41;18.87;;;15.90;;
19255;SDS011;9762;52.490;13.410;2023-01-23T04:32:06;19.63;;;15.77;;
19255;SDS011;9762;52.490;13.410;2023-01-23T04:34:33;20.03;;;16.60;;
19255;SDS011;9762;52.490;13.410;2023-01-23T04:36:59;19.70;;;16.33;;
19255;SDS011;9762;52.490;13.410;2023-01-23T04:39:25;18.90;;;16.30;;
19255;SDS011;9762;52.490;13.410;2023-01-23T04:41:50;19.30;;;15.63;;
19255;SDS011;9762;52.490;13.410;2023-01-23T04:44:16;17.87;;;15.00;;
19255;SDS011;9762;52.490;13.410;2023-01-23T04:46:45;17.17;;;15.00;;
19255;SDS011;9762;52.490;13.410;2023-01-23T04:49:13;18.63;;;15.67;;
19255;SDS011;9762;52.490;13.410;2023-01-23T04:51:39;19.37;;;15.80;;
19255;SDS011;9762;52.490;13.410;2023-01-23T04:54:05;24.80;;;16.37;;
19255;SDS011;9762;52.490;13.410;2023-01-23T04:56:31;19.43;;;15.73;;
19255;SDS011;9762;52.490;13.410;2023-01-23T04:58:56;17.73;;;15.53;;
19255;SDS011;9762;52.490;13.410;2023-01-23T05:01:22;16.77;;;14.97;;
19255;SDS011;9762;52.490;13.410;2023-01-23T05:03:48;18.77;;;15.23;;
19255;SDS011;9762;52.490;13.410;2023-01-23T05:06:15;17.73;;;14.97;;
19255;SDS011;9762;52.490;13.410;2023-01-23T05:08:41;20.03;;;16.93;;
19255;SDS011;9762;52.490;13.410;2023-01-23T05:11:06;19.73;;;15.50;;
19255;SDS011;9762;52.490;13.410;2023-01-23T05:13:32;18.73;;;16.10;;
19255;SDS011;9762;52.490;13.410;2023-01-23T05:15:58;19.30;;;15.87;;
19255;SDS011;9762;52.490;13.410;2023-01-23T05:18:23;17.07;;;15.13;;
19255;SDS011;9762;52.490;13.410;2023-01-23T05:20:49;20.10;;;16.77;;
19255;SDS011;9762;52.490;13.410;2023-01-23T05:23:15;19.20;;;15.80;;
19255;SDS011;9762;52.490;13.410;2023-01-23T05:25:40;20.10;;;16.83;;
19255;SDS011;9762;52.490;13.410;2023-01-23T05:28:06;22.17;;;17.13;;
19255;SDS011;9762;52.490;13.410;2023-01-23T05:30:32;20.67;;;16.50;;
19255;SDS011;9762;52.490;13.410;2023-01-23T05:32:57;19.53;;;16.27;;
19255;SDS011;9762;52.490;13.410;2023-01-23T05:35:24;20.47;;;16.70;;
19255;SDS011;9762;52.490;13.410;2023-01-23T05:37:50;19.27;;;16.13;;
19255;SDS011;9762;52.490;13.410;2023-01-23T05:40:16;20.50;;;17.60;;
19255;SDS011;9762;52.490;13.410;2023-01-23T05:42:42;20.70;;;17.63;;
19255;SDS011;9762;52.490;13.410;2023-01-23T05:45:08;23.67;;;17.90;;
19255;SDS011;9762;52.490;13.410;2023-01-23T05:47:34;18.30;;;16.27;;
19255;SDS011;9762;52.490;13.410;2023-01-23T05:49:59;21.10;;;16.37;;
19255;SDS011;9762;52.490;13.410;2023-01-23T05:52:25;23.93;;;17.97;;
19255;SDS011;9762;52.490;13.410;2023-01-23T05:54:51;21.07;;;16.57;;
19255;SDS011;9762;52.490;13.410;2023-01-23T05:57:17;22.07;;;17.27;;
19255;SDS011;9762;52.490;13.410;2023-01-23T05:59:46;23.83;;;18.73;;
19255;SDS011;9762;52.490;13.410;2023-01-23T06:02:11;21.87;;;17.40;;
19255;SDS011;9762;52.490;13.410;2023-01-23T06:04:37;20.07;;;16.93;;
19255;SDS011;9762;52.490;13.410;2023-01-23T06:07:03;21.23;;;17.43;;
19255;SDS011;9762;52.490;13.410;2023-01-23T06:09:28;21.97;;;16.53;;
19255;SDS011;9762;52.490;13.410;2023-01-23T06:11:54;19.57;;;16.83;;
19255;SDS011;9762;52.490;13.410;2023-01-23T06:14:20;24.87;;;17.87;;
19255;SDS011;9762;52.490;13.410;2023-01-23T06:16:45;19.53;;;16.87;;
19255;SDS011;9762;52.490;13.410;2023-01-23T06:19:11;19.60;;;16.43;;
19255;SDS011;9762;52.490;13.410;2023-01-23T06:21:37;22.63;;;17.87;;
19255;SDS011;9762;52.490;13.410;2023-01-23T06:24:03;22.43;;;17.80;;
19255;SDS011;9762;52.490;13.410;2023-01-23T06:26:29;24.43;;;18.77;;
19255;SDS011;9762;52.490;13.410;2023-01-23T06:28:54;23.83;;;18.57;;
19255;SDS011;9762;52.490;13.410;2023-01-23T06:31:20;26.33;;;20.30;;
19255;SDS011;9762;52.490;13.410;2023-01-23T06:33:49;27.13;;;21.20;;
19255;SDS011;9762;52.490;13.410;2023-01-23T06:36:15;23.73;;;19.57;;
19255;SDS011;9762;52.490;13.410;2023-01-23T06:38:41;24.97;;;20.27;;
19255;SDS011;9762;52.490;13.410;2023-01-23T06:41:07;22.03;;;19.17;;
19255;SDS011;9762;52.490;13.410;2023-01-23T06:43:33;19.80;;;17.37;;
19255;SDS011;9762;52.490;13.410;2023-01-23T06:45:59;21.50;;;17.70;;
19255;SDS011;9762;52.490;13.410;2023-01-23T06:48:24;19.57;;;16.97;;
19255;SDS011;9762;52.490;13.410;2023-01-23T06:50:50;23.70;;;19.20;;
19255;SDS011;9762;52.490;13.410;2023-01-23T06:53:16;21.60;;;17.63;;
19255;SDS011;9762;52.490;13.410;2023-01-23T06:55:42;24.90;;;18.97;;
19255;SDS011;9762;52.490;13.410;2023-01-23T06:58:08;22.57;;;17.30;;
19255;SDS011;9762;52.490;13.410;2023-01-23T07:00:33;22.30;;;17.10;;
19255;SDS011;9762;52.490;13.410;2023-01-23T07:02:59;19.83;;;17.70;;
19255;SDS011;9762;52.490;13.410;2023-01-23T07:05:27;19.37;;;17.00;;
19255;SDS011;9762;52.490;13.410;2023-01-23T07:07:54;21.27;;;17.83;;
19255;SDS011;9762;52.490;13.410;2023-01-23T07:10:20;20.60;;;17.17;;
19255;SDS011;9762;52.490;13.410;2023-01-23T07:12:47;20.30;;;17.87;;
19255;SDS011;9762;52.490;13.410;2023-01-23T07:15:13;20.97;;;18.20;;
19255;SDS011;9762;52.490;13.410;2023-01-23T07:17:38;22.53;;;18.80;;
19255;SDS011;9762;52.490;13.410;2023-01-23T07:20:04;26.80;;;20.40;;
19255;SDS011;9762;52.490;13.410;2023-01-23T07:22:30;27.23;;;20.47;;
19255;SDS011;9762;52.490;13.410;2023-01-23T07:24:56;21.43;;;17.80;;
19255;SDS011;9762;52.490;13.410;2023-01-23T07:27:22;20.70;;;17.97;;
19255;SDS011;9762;52.490;13.410;2023-01-23T07:29:47;19.33;;;17.00;;
19255;SDS011;9762;52.490;13.410;2023-01-23T07:32:13;20.07;;;17.97;;
19255;SDS011;9762;52.490;13.410;2023-01-23T07:34:38;23.50;;;19.20;;
19255;SDS011;9762;52.490;13.410;2023-01-23T07:37:04;22.97;;;19.03;;
19255;SDS011;9762;52.490;13.410;2023-01-23T07:39:30;23.23;;;18.60;;
19255;SDS011;9762;52.490;13.410;2023-01-23T07:41:55;19.23;;;17.23;;
19255;SDS011;9762;52.490;13.410;2023-01-23T07:44:21;22.40;;;17.93;;
19255;SDS011;9762;52.490;13.410;2023-01-23T07:46:47;19.70;;;17.33;;
19255;SDS011;9762;52.490;13.410;2023-01-23T07:49:13;21.97;;;17.57;;
19255;SDS011;9762;52.490;13.410;2023-01-23T07:51:39;20.27;;;17.07;;
19255;SDS011;9762;52.490;13.410;2023-01-23T07:54:05;20.60;;;18.13;;
19255;SDS011;9762;52.490;13.410;2023-01-23T07:56:32;20.10;;;17.37;;
19255;SDS011;9762;52.490;13.410;2023-01-23T07:58:58;25.00;;;19.27;;
19255;SDS011;9762;52.490;13.410;2023-01-23T08:01:24;20.87;;;17.20;;
19255;SDS011;9762;52.490;13.410;2023-01-23T08:03:51;20.17;;;17.70;;
19255;SDS011;9762;52.490;13.410;2023-01-23T08:06:17;20.03;;;17.07;;
19255;SDS011;9762;52.490;13.410;2023-01-23T08:08:42;21.43;;;17.80;;
19255;SDS011;9762;52.490;13.410;2023-01-23T08:11:08;25.17;;;18.03;;
19255;SDS011;9762;52.490;13.410;2023-01-23T08:13:35;19.47;;;17.20;;
19255;SDS011;9762;52.490;13.410;2023-01-23T08:16:01;21.43;;;17.93;;
19255;SDS011;9762;52.490;13.410;2023-01-23T08:18:27;23.10;;;17.23;;
19255;SDS011;9762;52.490;13.410;2023-01-23T08:20:55;24.70;;;18.20;;
19255;SDS011;9762;52.490;13.410;2023-01-23T08:23:29;23.53;;;18.63;;
19255;SDS011;9762;52.490;13.410;2023-01-23T08:25:57;21.73;;;18.27;;
19255;SDS011;9762;52.490;13.410;2023-01-23T08:28:24;20.00;;;17.73;;
19255;SDS011;9762;52.490;13.410;2023-01-23T08:30:51;23.30;;;18.07;;
19255;SDS011;9762;52.490;13.410;2023-01-23T08:33:17;22.13;;;17.33;;
19255;SDS011;9762;52.490;13.410;2023-01-23T08:36:02;21.20;;;18.80;;
19255;SDS011;9762;52.490;13.410;2023-01-23T08:38:29;21.93;;;17.90;;
19255;SDS011;9762;52.490;13.410;2023-01-23T08:40:57;21.07;;;17.97;;
19255;SDS011;9762;52.490;13.410;2023-01-23T08:43:24;22.97;;;17.90;;
19255;SDS011;9762;52.490;13.410;2023-01-23T08:45:50;22.13;;;17.63;;
19255;SDS011;9762;52.490;13.410;2023-01-23T08:48:18;20.87;;;17.60;;
19255;SDS011;9762;52.490;13.410;2023-01-23T08:50:45;20.80;;;18.20;;
19255;SDS011;9762;52.490;13.410;2023-01-23T08:53:11;30.43;;;21.40;;
19255;SDS011;9762;52.490;13.410;2023-01-23T08:55:37;23.40;;;19.17;;
19255;SDS011;9762;52.490;13.410;2023-01-23T08:58:03;20.47;;;17.90;;
19255;SDS011;9762;52.490;13.410;2023-01-23T09:00:31;22.97;;;18.70;;
19255;SDS011;9762;52.490;13.410;2023-01-23T09:03:01;25.43;;;18.53;;
19255;SDS011;9762;52.490;13.410;2023-01-23T09:05:27;23.23;;;18.43;;
19255;SDS011;9762;52.490;13.410;2023-01-23T09:07:54;23.00;;;18.80;;
19255;SDS011;9762;52.490;13.410;2023-01-23T09:10:21;24.20;;;18.40;;
19255;SDS011;9762;52.490;13.410;2023-01-23T09:12:49;21.27;;;17.57;;
19255;SDS011;9762;52.490;13.410;2023-01-23T09:15:15;19.23;;;17.17;;
19255;SDS011;9762;52.490;13.410;2023-01-23T09:17:41;21.97;;;18.00;;
19255;SDS011;9762;52.490;13.410;2023-01-23T09:20:07;20.90;;;17.80;;
19255;SDS011;9762;52.490;13.410;2023-01-23T09:22:33;22.80;;;18.13;;
19255;SDS011;9762;52.490;13.410;2023-01-23T09:24:59;23.17;;;18.60;;
19255;SDS011;9762;52.490;13.410;2023-01-23T09:27:25;26.60;;;19.60;;
19255;SDS011;9762;52.490;13.410;2023-01-23T09:29:50;25.90;;;20.00;;
19255;SDS011;9762;52.490;13.410;2023-01-23T09:32:16;22.10;;;19.00;;
19255;SDS011;9762;52.490;13.410;2023-01-23T09:34:42;41.03;;;33.47;;
19255;SDS011;9762;52.490;13.410;2023-01-23T09:37:07;25.37;;;21.87;;
19255;SDS011;9762;52.490;13.410;2023-01-23T09:39:33;24.47;;;20.37;;
19255;SDS011;9762;52.490;13.410;2023-01-23T09:42:02;24.87;;;20.70;;
19255;SDS011;9762;52.490;13.410;2023-01-23T09:44:40;29.23;;;23.67;;
19255;SDS011;9762;52.490;13.410;2023-01-23T09:47:17;24.30;;;21.47;;
19255;SDS011;9762;52.490;13.410;2023-01-23T09:50:01;21.73;;;18.30;;
19255;SDS011;9762;52.490;13.410;2023-01-23T09:52:33;23.90;;;19.27;;
19255;SDS011;9762;52.490;13.410;2023-01-23T09:55:12;23.97;;;19.97;;
19255;SDS011;9762;52.490;13.410;2023-01-23T09:57:47;23.37;;;18.70;;
19255;SDS011;9762;52.490;13.410;2023-01-23T10:00:21;25.60;;;21.37;;
19255;SDS011;9762;52.490;13.410;2023-01-23T10:02:56;22.50;;;18.30;;
19255;SDS011;9762;52.490;13.410;2023-01-23T10:05:46;22.07;;;18.27;;
19255;SDS011;9762;52.490;13.410;2023-01-23T10:11:02;24.97;;;18.27;;
19255;SDS011;9762;52.490;13.410;2023-01-23T10:13:33;19.73;;;17.33;;
19255;SDS011;9762;52.490;13.410;2023-01-23T10:16:23;24.67;;;21.17;;
19255;SDS011;9762;52.490;13.410;2023-01-23T10:19:20;22.03;;;18.60;;
19255;SDS011;9762;52.490;13.410;2023-01-23T10:22:07;21.03;;;17.73;;
19255;SDS011;9762;52.490;13.410;2023-01-23T10:24:54;19.50;;;17.23;;
19255;SDS011;9762;52.490;13.410;2023-01-23T10:27:35;23.47;;;17.87;;
19255;SDS011;9762;52.490;13.410;2023-01-23T10:35:28;23.70;;;18.20;;
19255;SDS011;9762;52.490;13.410;2023-01-23T10:40:46;21.27;;;17.97;;
19255;SDS011;9762;52.490;13.410;2023-01-23T10:43:31;22.80;;;18.60;;
19255;SDS011;9762;52.490;13.410;2023-01-23T10:45:57;20.17;;;17.83;;
19255;SDS011;9762;52.490;13.410;2023-01-23T10:48:26;22.40;;;18.83;;
19255;SDS011;9762;52.490;13.410;2023-01-23T10:50:58;24.43;;;18.27;;
19255;SDS011;9762;52.490;13.410;2023-01-23T10:53:24;21.77;;;18.57;;
19255;SDS011;9762;52.490;13.410;2023-01-23T10:55:51;21.90;;;18.40;;
19255;SDS011;9762;52.490;13.410;2023-01-23T11:00:53;25.37;;;18.57;;
19255;SDS011;9762;52.490;13.410;2023-01-23T11:05:52;20.90;;;18.53;;
19255;SDS011;9762;52.490;13.410;2023-01-23T11:13:39;20.30;;;17.77;;
19255;SDS011;9762;52.490;13.410;2023-01-23T11:16:05;20.83;;;18.63;;
19255;SDS011;9762;52.490;13.410;2023-01-23T11:18:31;25.17;;;17.90;;
19255;SDS011;9762;52.490;13.410;2023-01-23T11:21:09;22.37;;;18.03;;
19255;SDS011;9762;52.490;13.410;2023-01-23T11:23:48;21.57;;;17.33;;
19255;SDS011;9762;52.490;13.410;2023-01-23T11:26:31;31.80;;;20.57;;
19255;SDS011;9762;52.490;13.410;2023-01-23T11:28:58;20.83;;;17.57;;
19255;SDS011;9762;52.490;13.410;2023-01-23T11:31:23;20.87;;;17.93;;
19255;SDS011;9762;52.490;13.410;2023-01-23T11:39:33;21.50;;;17.53;;
19255;SDS011;9762;52.490;13.410;2023-01-23T11:41:41;25.57;;;17.57;;
19255;SDS011;9762;52.490;13.410;2023-01-23T11:44:12;24.77;;;20.63;;
19255;SDS011;9762;52.490;13.410;2023-01-23T11:47:09;25.87;;;17.80;;
19255;SDS011;9762;52.490;13.410;2023-01-23T11:52:22;20.43;;;17.00;;
19255;SDS011;9762;52.490;13.410;2023-01-23T12:11:16;33.97;;;22.93;;
19255;SDS011;9762;52.490;13.410;2023-01-23T12:19:50;18.83;;;15.87;;
19255;SDS011;9762;52.490;13.410;2023-01-23T12:22:12;19.33;;;14.70;;
19255;SDS011;9762;52.490;13.410;2023-01-23T12:30:26;21.23;;;14.77;;
19255;SDS011;9762;52.490;13.410;2023-01-23T12:36:11;16.00;;;13.80;;
19255;SDS011;9762;52.490;13.410;2023-01-23T12:46:25;19.60;;;13.03;;
19255;SDS011;9762;52.490;13.410;2023-01-23T12:52:03;15.30;;;12.77;;
19255;SDS011;9762;52.490;13.410;2023-01-23T12:54:38;13.57;;;12.17;;
19255;SDS011;9762;52.490;13.410;2023-01-23T12:57:15;15.20;;;13.33;;
19255;SDS011;9762;52.490;13.410;2023-01-23T13:00:05;13.53;;;12.10;;
19255;SDS011;9762;52.490;13.410;2023-01-23T13:05:26;16.00;;;11.87;;
19255;SDS011;9762;52.490;13.410;2023-01-23T13:08:09;19.50;;;12.07;;
19255;SDS011;9762;52.490;13.410;2023-01-23T13:13:53;14.53;;;12.03;;
19255;SDS011;9762;52.490;13.410;2023-01-23T13:16:19;14.33;;;11.63;;
19255;SDS011;9762;52.490;13.410;2023-01-23T13:18:52;14.60;;;11.73;;
19255;SDS011;9762;52.490;13.410;2023-01-23T13:27:34;11.87;;;10.73;;
19255;SDS011;9762;52.490;13.410;2023-01-23T13:32:51;15.03;;;11.60;;
19255;SDS011;9762;52.490;13.410;2023-01-23T13:52:12;19.53;;;11.57;;
19255;SDS011;9762;52.490;13.410;2023-01-23T13:58:01;13.43;;;10.97;;
19255;SDS011;9762;52.490;13.410;2023-01-23T14:00:29;16.17;;;11.60;;
19255;SDS011;9762;52.490;13.410;2023-01-23T14:03:44;13.37;;;10.80;;
19255;SDS011;9762;52.490;13.410;2023-01-23T14:06:16;14.23;;;10.90;;
19255;SDS011;9762;52.490;13.410;2023-01-23T14:08:49;15.40;;;11.63;;
19255;SDS011;9762;52.490;13.410;2023-01-23T14:11:19;13.57;;;11.23;;
19255;SDS011;9762;52.490;13.410;2023-01-23T14:13:52;13.13;;;11.40;;
19255;SDS011;9762;52.490;13.410;2023-01-23T14:16:39;11.43;;;10.33;;
19255;SDS011;9762;52.490;13.410;2023-01-23T14:19:26;16.60;;;11.90;;
19255;SDS011;9762;52.490;13.410;2023-01-23T14:21:58;13.83;;;10.40;;
19255;SDS011;9762;52.490;13.410;2023-01-23T14:27:19;15.93;;;10.63;;
19255;SDS011;9762;52.490;13.410;2023-01-23T14:29:59;14.87;;;10.83;;
19255;SDS011;9762;52.490;13.410;2023-01-23T14:32:30;15.57;;;11.37;;
19255;SDS011;9762;52.490;13.410;2023-01-23T14:34:58;13.07;;;10.67;;
19255;SDS011;9762;52.490;13.410;2023-01-23T14:37:24;13.57;;;10.17;;
19255;SDS011;9762;52.490;13.410;2023-01-23T14:39:51;12.67;;;10.70;;
19255;SDS011;9762;52.490;13.410;2023-01-23T14:42:21;11.53;;;10.43;;
19255;SDS011;9762;52.490;13.410;2023-01-23T14:44:50;11.67;;;9.97;;
19255;SDS011;9762;52.490;13.410;2023-01-23T14:47:23;10.77;;;9.70;;
19255;SDS011;9762;52.490;13.410;2023-01-23T14:49:54;11.43;;;10.20;;
19255;SDS011;9762;52.490;13.410;2023-01-23T14:52:21;15.27;;;11.00;;
19255;SDS011;9762;52.490;13.410;2023-01-23T14:54:57;16.07;;;10.20;;
19255;SDS011;9762;52.490;13.410;2023-01-23T14:57:24;14.93;;;11.77;;
19255;SDS011;9762;52.490;13.410;2023-01-23T14:59:51;40.17;;;27.10;;
19255;SDS011;9762;52.490;13.410;2023-01-23T15:02:32;22.33;;;14.97;;
19255;SDS011;9762;52.490;13.410;2023-01-23T15:07:30;17.17;;;12.83;;
19255;SDS011;9762;52.490;13.410;2023-01-23T15:09:56;22.87;;;14.60;;
19255;SDS011;9762;52.490;13.410;2023-01-23T15:12:22;21.17;;;13.27;;
19255;SDS011;9762;52.490;13.410;2023-01-23T15:14:49;17.60;;;13.83;;
19255;SDS011;9762;52.490;13.410;2023-01-23T15:17:19;15.47;;;11.50;;
19255;SDS011;9762;52.490;13.410;2023-01-23T15:19:49;16.20;;;12.87;;
19255;SDS011;9762;52.490;13.410;2023-01-23T15:22:19;17.03;;;12.50;;
19255;SDS011;9762;52.490;13.410;2023-01-23T15:24:50;17.23;;;12.10;;
19255;SDS011;9762;52.490;13.410;2023-01-23T15:27:26;12.20;;;10.73;;
19255;SDS011;9762;52.490;13.410;2023-01-23T15:32:53;14.97;;;12.53;;
19255;SDS011;9762;52.490;13.410;2023-01-23T15:35:19;15.07;;;12.30;;
19255;SDS011;9762;52.490;13.410;2023-01-23T15:37:45;16.77;;;12.87;;
19255;SDS011;9762;52.490;13.410;2023-01-23T15:40:14;16.00;;;11.57;;
19255;SDS011;9762;52.490;13.410;2023-01-23T15:42:41;17.47;;;13.67;;
19255;SDS011;9762;52.490;13.410;2023-01-23T15:45:13;19.20;;;15.23;;
19255;SDS011;9762;52.490;13.410;2023-01-23T15:47:38;15.90;;;13.53;;
19255;SDS011;9762;52.490;13.410;2023-01-23T15:50:04;16.60;;;11.83;;
19255;SDS011;9762;52.490;13.410;2023-01-23T15:52:44;12.57;;;11.03;;
19255;SDS011;9762;52.490;13.410;2023-01-23T15:55:10;12.50;;;10.50;;
19255;SDS011;9762;52.490;13.410;2023-01-23T15:57:36;15.53;;;12.17;;
19255;SDS011;9762;52.490;13.410;2023-01-23T16:00:10;18.57;;;13.73;;
19255;SDS011;9762;52.490;13.410;2023-01-23T16:02:38;14.57;;;11.73;;
19255;SDS011;9762;52.490;13.410;2023-01-23T16:05:04;15.23;;;12.00;;
19255;SDS011;9762;52.490;13.410;2023-01-23T16:07:32;15.33;;;11.27;;
19255;SDS011;9762;52.490;13.410;2023-01-23T16:09:58;14.23;;;11.17;;
19255;SDS011;9762;52.490;13.410;2023-01-23T16:12:27;14.27;;;12.77;;
19255;SDS011;9762;52.490;13.410;2023-01-23T16:14:54;13.83;;;12.33;;
19255;SDS011;9762;52.490;13.410;2023-01-23T16:17:20;16.17;;;12.03;;
19255;SDS011;9762;52.490;13.410;2023-01-23T16:19:46;15.10;;;12.33;;
19255;SDS011;9762;52.490;13.410;2023-01-23T16:22:12;14.17;;;11.70;;
19255;SDS011;9762;52.490;13.410;2023-01-23T16:24:48;14.07;;;12.10;;
19255;SDS011;9762;52.490;13.410;2023-01-23T16:27:15;17.73;;;13.10;;
19255;SDS011;9762;52.490;13.410;2023-01-23T16:29:42;13.53;;;11.83;;